createdAt,value
2022-10-05T00:01:27.089Z,6.70
2022-10-05T00:04:01.140Z,6.53
2022-10-05T00:06:31.215Z,5.83
2022-10-05T00:09:01.791Z,5.43
2022-10-05T00:11:29.698Z,5.60
2022-10-05T00:13:57.592Z,4.90
2022-10-05T00:16:26.897Z,4.40
2022-10-05T00:18:55.100Z,5.70
2022-10-05T00:21:24.636Z,4.83
2022-10-05T00:23:53.628Z,4.60
2022-10-05T00:26:24.164Z,4.13
2022-10-05T00:28:53.520Z,4.70
2022-10-05T00:31:23.489Z,4.97
2022-10-05T00:33:52.992Z,5.10
2022-10-05T00:36:20.973Z,4.63
2022-10-05T00:38:48.959Z,4.30
2022-10-05T00:41:22.644Z,4.57
2022-10-05T00:44:12.360Z,4.73
2022-10-05T00:46:52.334Z,5.33
2022-10-05T00:49:37.599Z,5.43
2022-10-05T00:52:20.237Z,5.63
2022-10-05T00:54:56.528Z,6.80
2022-10-05T00:57:38.145Z,7.03
2022-10-05T01:00:09.933Z,7.40
2022-10-05T01:02:50.234Z,7.53
2022-10-05T01:05:35.727Z,8.23
2022-10-05T01:08:14.119Z,8.27
2022-10-05T01:10:48.736Z,9.03
2022-10-05T01:13:28.037Z,8.60
2022-10-05T01:16:05.127Z,9.33
2022-10-05T01:18:40.668Z,8.80
2022-10-05T01:21:19.457Z,8.10
2022-10-05T01:24:28.981Z,8.17
2022-10-05T01:27:33.133Z,7.83
2022-10-05T01:30:05.704Z,7.80
2022-10-05T01:32:40.169Z,7.23
2022-10-05T01:35:22.504Z,7.07
2022-10-05T01:38:01.954Z,6.93
2022-10-05T01:40:38.094Z,7.00
2022-10-05T01:43:18.587Z,7.00
2022-10-05T01:45:57.727Z,5.80
2022-10-05T01:48:36.448Z,5.90
2022-10-05T01:51:13.004Z,5.77
2022-10-05T01:53:55.583Z,5.10
2022-10-05T01:56:29.717Z,4.50
2022-10-05T01:59:11.304Z,4.93
2022-10-05T02:01:49.492Z,4.40
2022-10-05T02:04:56.508Z,4.40
2022-10-05T02:07:15.159Z,4.10
2022-10-05T02:09:47.610Z,4.23
2022-10-05T02:12:19.954Z,4.87
2022-10-05T02:14:53.895Z,4.43
2022-10-05T02:17:27.460Z,4.60
2022-10-05T02:20:00.914Z,4.53
2022-10-05T02:22:33.828Z,4.37
2022-10-05T02:25:05.719Z,4.17
2022-10-05T02:27:38.100Z,4.20
2022-10-05T02:30:15.572Z,4.50
2022-10-05T02:32:50.882Z,4.80
2022-10-05T02:35:21.117Z,4.70
2022-10-05T02:37:58.705Z,4.90
2022-10-05T02:40:38.849Z,4.50
2022-10-05T02:43:20.700Z,4.90
2022-10-05T02:45:56.236Z,4.63
2022-10-05T02:48:35.397Z,4.27
2022-10-05T02:51:12.370Z,4.27
2022-10-05T02:54:04.917Z,4.53
2022-10-05T02:56:39.217Z,4.10
2022-10-05T02:59:16.068Z,4.53
2022-10-05T03:01:51.578Z,4.10
2022-10-05T03:04:30.849Z,3.90
2022-10-05T03:07:06.104Z,3.73
2022-10-05T03:09:42.437Z,4.03
2022-10-05T03:12:20.388Z,4.10
2022-10-05T03:15:00.554Z,4.17
2022-10-05T03:17:35.921Z,4.77
2022-10-05T03:20:23.900Z,4.50
2022-10-05T03:22:56.318Z,5.17
2022-10-05T03:25:47.584Z,5.20
2022-10-05T03:28:22.027Z,6.70
2022-10-05T03:30:56.787Z,5.97
2022-10-05T03:33:36.264Z,6.33
2022-10-05T03:36:13.548Z,4.63
2022-10-05T03:38:48.966Z,4.70
2022-10-05T03:41:22.629Z,4.50
2022-10-05T03:44:27.519Z,4.50
2022-10-05T03:47:21.580Z,4.57
2022-10-05T03:50:02.296Z,4.03
2022-10-05T03:52:37.015Z,3.90
2022-10-05T03:55:16.765Z,3.87
2022-10-05T03:57:47.007Z,4.07
2022-10-05T04:00:18.268Z,3.87
2022-10-05T04:02:53.330Z,4.20
2022-10-05T04:05:26.819Z,4.00
2022-10-05T04:08:00.533Z,4.20
2022-10-05T04:10:32.613Z,4.50
2022-10-05T04:13:05.461Z,4.63
2022-10-05T04:15:37.839Z,3.57
2022-10-05T04:18:12.585Z,4.30
2022-10-05T04:20:46.387Z,4.27
2022-10-05T04:23:20.535Z,4.20
2022-10-05T04:25:52.624Z,3.80
2022-10-05T04:28:32.180Z,4.37
2022-10-05T04:31:04.929Z,4.70
2022-10-05T04:33:33.613Z,4.57
2022-10-05T04:36:18.948Z,6.90
2022-10-05T04:39:03.690Z,7.43
2022-10-05T04:41:44.748Z,7.00
2022-10-05T04:44:39.749Z,6.60
2022-10-05T04:47:46.092Z,7.87
2022-10-05T04:50:30.326Z,10.13
2022-10-05T04:53:06.497Z,9.67
2022-10-05T04:55:44.795Z,7.80
2022-10-05T04:58:25.712Z,7.07
2022-10-05T05:01:09.386Z,7.10
2022-10-05T05:03:55.779Z,7.33
2022-10-05T05:06:33.844Z,6.10
2022-10-05T05:09:23.723Z,7.20
2022-10-05T05:12:11.860Z,6.53
2022-10-05T05:14:54.394Z,6.27
2022-10-05T05:17:36.260Z,7.50
2022-10-05T05:20:20.229Z,6.50
2022-10-05T05:22:53.511Z,6.63
2022-10-05T05:25:36.581Z,6.27
2022-10-05T05:28:14.818Z,5.93
2022-10-05T05:30:49.653Z,6.70
2022-10-05T05:33:24.198Z,6.60
2022-10-05T05:36:07.872Z,6.97
2022-10-05T05:38:39.848Z,6.87
2022-10-05T05:41:12.261Z,6.73
2022-10-05T05:43:54.141Z,6.23
2022-10-05T05:46:51.074Z,6.50
2022-10-05T05:49:19.476Z,6.13
2022-10-05T05:51:53.187Z,6.40
2022-10-05T05:54:32.453Z,5.97
2022-10-05T05:57:11.082Z,6.10
2022-10-05T05:59:57.650Z,5.53
2022-10-05T06:02:30.560Z,5.57
2022-10-05T06:05:04.220Z,5.17
2022-10-05T06:07:32.853Z,5.47
2022-10-05T06:10:06.694Z,5.37
2022-10-05T06:12:42.055Z,5.37
2022-10-05T06:15:25.427Z,5.30
2022-10-05T06:17:56.368Z,6.90
2022-10-05T06:20:28.913Z,6.10
2022-10-05T06:23:02.532Z,5.80
2022-10-05T06:25:39.893Z,6.63
2022-10-05T06:28:12.727Z,6.03
2022-10-05T06:30:51.174Z,6.70
2022-10-05T06:33:29.963Z,6.03
2022-10-05T06:36:16.309Z,5.97
2022-10-05T06:39:55.417Z,5.83
2022-10-05T06:42:43.472Z,5.47
2022-10-05T06:45:20.251Z,5.67
2022-10-05T06:47:54.321Z,5.17
2022-10-05T06:50:32.732Z,4.90
2022-10-05T06:53:17.497Z,4.37
2022-10-05T06:55:56.421Z,4.73
2022-10-05T06:58:45.143Z,5.40
2022-10-05T07:01:20.765Z,5.10
2022-10-05T07:04:03.701Z,5.50
2022-10-05T07:06:36.677Z,4.53
2022-10-05T07:09:18.729Z,4.80
2022-10-05T07:12:05.730Z,4.73
2022-10-05T07:14:50.017Z,5.00
2022-10-05T07:17:31.264Z,4.70
2022-10-05T07:20:10.195Z,4.13
2022-10-05T07:23:13.999Z,4.73
2022-10-05T07:25:47.633Z,4.70
2022-10-05T07:28:25.167Z,5.00
2022-10-05T07:30:57.508Z,4.60
2022-10-05T07:33:31.512Z,4.83
2022-10-05T07:36:35.617Z,5.07
2022-10-05T07:39:10.253Z,4.67
2022-10-05T07:41:46.075Z,5.00
2022-10-05T07:44:23.483Z,4.70
2022-10-05T07:46:54.986Z,4.53
2022-10-05T07:49:36.739Z,4.93
2022-10-05T07:52:11.870Z,5.60
2022-10-05T07:54:48.700Z,8.53
2022-10-05T07:57:24.857Z,6.40
2022-10-05T08:00:01.937Z,6.50
2022-10-05T08:02:36.480Z,5.70
2022-10-05T08:05:12.404Z,5.40
2022-10-05T08:07:41.468Z,5.03
2022-10-05T08:10:25.167Z,4.80
2022-10-05T08:13:01.796Z,4.27
2022-10-05T08:15:35.971Z,4.20
2022-10-05T08:18:10.411Z,4.30
2022-10-05T08:20:45.672Z,4.27
2022-10-05T08:23:22.334Z,4.53
2022-10-05T08:25:59.473Z,4.50
2022-10-05T08:28:31.966Z,4.17
2022-10-05T08:31:10.735Z,4.43
2022-10-05T08:33:50.675Z,4.17
2022-10-05T08:36:25.101Z,4.10
2022-10-05T08:38:55.853Z,4.30
2022-10-05T08:41:59.393Z,4.00
2022-10-05T08:44:55.749Z,4.10
2022-10-05T08:47:51.901Z,4.40
2022-10-05T08:50:35.072Z,3.90
2022-10-05T08:53:21.010Z,3.57
2022-10-05T08:56:01.876Z,3.90
2022-10-05T08:59:01.562Z,4.00
2022-10-05T09:01:43.129Z,4.27
2022-10-05T09:04:44.678Z,3.83
2022-10-05T09:07:28.438Z,3.50
2022-10-05T09:10:47.022Z,4.30
2022-10-05T09:13:34.622Z,4.30
2022-10-05T09:16:34.735Z,3.93
2022-10-05T09:19:27.742Z,4.13
2022-10-05T09:22:05.968Z,4.10
2022-10-05T09:24:54.711Z,4.20
2022-10-05T09:27:36.548Z,3.97
2022-10-05T09:30:50.173Z,4.37
2022-10-05T09:34:01.912Z,4.13
2022-10-05T09:37:05.308Z,4.37
2022-10-05T09:40:35.035Z,3.87
2022-10-05T09:43:26.496Z,4.07
2022-10-05T09:46:21.222Z,4.30
2022-10-05T09:49:14.701Z,4.10
2022-10-05T09:52:08.517Z,4.47
2022-10-05T09:55:14.137Z,4.33
2022-10-05T09:58:02.533Z,4.22
2022-10-05T10:00:40.101Z,4.00
2022-10-05T10:03:48.148Z,4.10
2022-10-05T10:06:31.469Z,4.00
2022-10-05T10:09:19.024Z,4.63
2022-10-05T10:12:14.650Z,4.03
2022-10-05T10:15:15.990Z,4.22
2022-10-05T10:18:05.451Z,3.97
2022-10-05T10:20:51.559Z,4.03
2022-10-05T10:23:39.091Z,4.20
2022-10-05T10:26:43.194Z,4.03
2022-10-05T10:29:33.513Z,4.27
2022-10-05T10:32:20.404Z,4.00
2022-10-05T10:35:20.036Z,4.43
2022-10-05T10:38:24.820Z,4.30
2022-10-05T10:41:16.053Z,4.77
2022-10-05T10:44:07.156Z,4.33
2022-10-05T10:46:47.550Z,4.03
2022-10-05T10:49:37.211Z,4.40
2022-10-05T10:52:32.384Z,4.30
2022-10-05T10:55:26.937Z,4.47
2022-10-05T10:58:24.208Z,3.83
2022-10-05T11:01:03.204Z,3.93
2022-10-05T11:04:08.275Z,4.07
2022-10-05T11:06:50.208Z,4.57
2022-10-05T11:09:51.234Z,4.50
2022-10-05T11:12:58.710Z,4.10
2022-10-05T11:15:50.833Z,4.17
2022-10-05T11:18:25.501Z,4.10
2022-10-05T11:21:26.235Z,4.20
2022-10-05T11:24:38.886Z,4.33
2022-10-05T11:27:34.263Z,4.30
2022-10-05T11:30:35.243Z,4.23
2022-10-05T11:33:37.232Z,3.97
2022-10-05T11:36:50.590Z,4.27
2022-10-05T11:39:36.854Z,4.00
2022-10-05T11:42:44.564Z,4.37
2022-10-05T11:45:37.764Z,4.07
2022-10-05T11:48:22.491Z,4.00
2022-10-05T11:51:09.815Z,3.80
2022-10-05T11:53:44.163Z,4.40
2022-10-05T11:56:24.205Z,3.92
2022-10-05T11:58:57.188Z,3.60
2022-10-05T12:01:30.397Z,3.80
2022-10-05T12:04:08.894Z,3.47
2022-10-05T12:06:54.863Z,3.57
2022-10-05T12:10:02.867Z,3.60
2022-10-05T12:12:37.012Z,3.27
2022-10-05T12:15:17.505Z,3.00
2022-10-05T12:17:52.975Z,3.30
2022-10-05T12:20:28.284Z,3.35
2022-10-05T12:23:03.265Z,3.45
2022-10-05T12:25:37.472Z,4.00
2022-10-05T12:28:11.109Z,3.17
2022-10-05T12:31:09.625Z,3.43
2022-10-05T12:33:46.687Z,3.50
2022-10-05T12:36:19.632Z,3.17
2022-10-05T12:38:53.466Z,3.33
2022-10-05T12:41:29.287Z,3.30
2022-10-05T12:44:17.613Z,3.33
2022-10-05T12:46:55.004Z,3.30
2022-10-05T12:49:40.390Z,3.00
2022-10-05T12:52:23.081Z,3.40
2022-10-05T12:54:56.139Z,3.20
2022-10-05T12:57:34.331Z,3.70
2022-10-05T13:00:06.638Z,3.47
2022-10-05T13:02:42.273Z,3.30
2022-10-05T13:05:27.364Z,3.80
2022-10-05T13:08:05.514Z,3.60
2022-10-05T13:10:37.849Z,3.47
2022-10-05T13:13:34.221Z,3.90
2022-10-05T13:16:11.203Z,3.13
2022-10-05T13:18:52.749Z,3.87
2022-10-05T13:21:26.744Z,3.73
2022-10-05T13:24:00.481Z,3.90
2022-10-05T13:26:35.164Z,3.50
2022-10-05T13:29:16.760Z,3.20
2022-10-05T13:31:48.066Z,3.47
2022-10-05T13:34:29.183Z,3.17
2022-10-05T13:37:11.067Z,3.50
2022-10-05T13:39:57.996Z,3.47
2022-10-05T13:42:33.997Z,3.60
2022-10-05T13:45:12.099Z,3.13
2022-10-05T13:47:49.820Z,3.73
2022-10-05T13:50:22.558Z,3.73
2022-10-05T13:53:01.075Z,3.30
2022-10-05T13:55:38.051Z,3.43
2022-10-05T13:58:13.618Z,3.50
2022-10-05T14:00:51.248Z,3.37
2022-10-05T14:03:32.455Z,3.47
2022-10-05T14:06:02.019Z,3.70
2022-10-05T14:08:33.318Z,3.60
2022-10-05T14:11:03.004Z,3.37
2022-10-05T14:13:44.830Z,3.40
2022-10-05T14:16:25.518Z,3.50
2022-10-05T14:18:57.740Z,3.87
2022-10-05T14:21:27.794Z,3.50
2022-10-05T14:23:58.736Z,3.67
2022-10-05T14:26:34.654Z,3.40
2022-10-05T14:29:15.921Z,3.50
2022-10-05T14:31:54.456Z,3.50
2022-10-05T14:34:32.274Z,3.20
2022-10-05T14:37:04.778Z,4.37
2022-10-05T14:39:35.721Z,3.67
2022-10-05T14:42:15.441Z,3.23
2022-10-05T14:44:43.459Z,4.17
2022-10-05T14:47:22.678Z,3.27
2022-10-05T14:50:16.453Z,3.43
2022-10-05T14:52:51.946Z,3.77
2022-10-05T14:55:37.604Z,3.97
2022-10-05T14:58:24.820Z,3.47
2022-10-05T15:00:57.454Z,3.73
2022-10-05T15:03:37.832Z,3.40
2022-10-05T15:06:15.505Z,3.77
2022-10-05T15:08:59.606Z,3.03
2022-10-05T15:11:37.231Z,3.00
2022-10-05T15:14:14.754Z,3.30
2022-10-05T15:16:43.297Z,3.10
2022-10-05T15:19:20.855Z,3.20
2022-10-05T15:22:06.176Z,3.10
2022-10-05T15:24:43.726Z,3.50
2022-10-05T15:27:22.857Z,3.30
2022-10-05T15:30:03.362Z,4.07
2022-10-05T15:32:42.199Z,3.33
2022-10-05T15:35:40.749Z,3.00
2022-10-05T15:38:21.165Z,3.40
2022-10-05T15:41:14.846Z,3.43
2022-10-05T15:44:01.906Z,3.63
2022-10-05T15:46:36.762Z,3.50
2022-10-05T15:49:19.663Z,3.83
2022-10-05T15:51:59.181Z,5.07
2022-10-05T15:54:55.463Z,5.00
2022-10-05T15:57:31.229Z,5.00
2022-10-05T16:00:04.525Z,5.00
2022-10-05T16:02:41.799Z,4.47
2022-10-05T16:05:46.744Z,4.27
2022-10-05T16:08:47.949Z,3.90
2022-10-05T16:11:29.857Z,3.43
2022-10-05T16:14:09.199Z,3.70
2022-10-05T16:16:47.389Z,3.53
2022-10-05T16:19:22.465Z,3.20
2022-10-05T16:21:58.047Z,3.07
2022-10-05T16:24:49.321Z,3.10
2022-10-05T16:27:28.904Z,3.73
2022-10-05T16:30:02.516Z,3.13
2022-10-05T16:32:36.797Z,3.43
2022-10-05T16:35:15.745Z,3.30
2022-10-05T16:37:49.361Z,3.33
2022-10-05T16:40:23.133Z,3.80
2022-10-05T16:43:05.904Z,3.70
2022-10-05T16:45:46.062Z,3.33
2022-10-05T16:48:22.109Z,3.00
2022-10-05T16:51:01.849Z,3.50
2022-10-05T16:53:37.272Z,3.40
2022-10-05T16:56:12.237Z,3.50
2022-10-05T16:58:57.456Z,3.50
2022-10-05T17:01:42.170Z,3.57
2022-10-05T17:04:23.719Z,3.30
2022-10-05T17:07:25.661Z,3.70
2022-10-05T17:10:23.302Z,3.23
2022-10-05T17:13:04.212Z,3.60
2022-10-05T17:15:42.484Z,3.77
2022-10-05T17:18:31.444Z,3.20
2022-10-05T17:21:16.535Z,3.60
2022-10-05T17:23:54.686Z,3.67
2022-10-05T17:26:55.633Z,4.00
2022-10-05T17:29:47.631Z,3.30
2022-10-05T17:32:36.485Z,3.70
2022-10-05T17:35:18.553Z,3.60
2022-10-05T17:38:17.231Z,3.30
2022-10-05T17:41:06.379Z,4.23
2022-10-05T17:43:34.924Z,4.50
2022-10-05T17:46:06.740Z,5.80
2022-10-05T17:48:40.328Z,6.93
2022-10-05T17:52:11.256Z,6.43
2022-10-05T17:55:34.495Z,5.20
2022-10-05T17:58:40.963Z,4.60
2022-10-05T18:01:20.734Z,4.80
2022-10-05T18:03:50.721Z,5.03
2022-10-05T18:06:33.600Z,5.00
2022-10-05T18:09:35.592Z,4.40
2022-10-05T18:12:12.815Z,4.30
2022-10-05T18:15:00.686Z,5.57
2022-10-05T18:17:45.404Z,5.13
2022-10-05T18:20:19.078Z,7.17
2022-10-05T18:22:47.453Z,8.60
2022-10-05T18:25:27.196Z,7.33
2022-10-05T18:28:12.111Z,6.67
2022-10-05T18:30:59.212Z,6.80
2022-10-05T18:33:45.390Z,8.50
2022-10-05T18:36:27.519Z,7.57
2022-10-05T18:39:04.003Z,9.37
2022-10-05T18:41:48.208Z,10.47
2022-10-05T18:44:32.920Z,10.00
2022-10-05T18:47:07.332Z,8.10
2022-10-05T18:49:58.493Z,8.63
2022-10-05T18:52:41.237Z,8.93
2022-10-05T18:55:20.176Z,9.33
2022-10-05T18:58:17.757Z,9.63
2022-10-05T19:01:00.070Z,9.63
2022-10-05T19:03:32.849Z,10.03
2022-10-05T19:06:13.401Z,10.80
2022-10-05T19:08:50.878Z,10.43
2022-10-05T19:11:27.786Z,11.07
2022-10-05T19:14:05.639Z,10.80
2022-10-05T19:16:49.400Z,10.50
2022-10-05T19:19:47.994Z,12.23
2022-10-05T19:22:31.016Z,11.30
2022-10-05T19:25:16.003Z,11.63
2022-10-05T19:27:55.345Z,11.47
2022-10-05T19:30:27.224Z,10.73
2022-10-05T19:33:14.387Z,9.80
2022-10-05T19:35:58.191Z,10.13
2022-10-05T19:38:33.347Z,10.30
2022-10-05T19:41:11.389Z,9.20
2022-10-05T19:44:01.990Z,9.10
2022-10-05T19:46:44.222Z,8.33
2022-10-05T19:49:12.454Z,8.70
2022-10-05T19:51:50.836Z,8.30
2022-10-05T19:54:26.890Z,8.37
2022-10-05T19:56:55.715Z,8.33
2022-10-05T19:59:27.964Z,8.33
2022-10-05T20:01:57.829Z,7.67
2022-10-05T20:04:40.869Z,7.87
2022-10-05T20:07:14.329Z,7.20
2022-10-05T20:10:18.625Z,7.00
2022-10-05T20:12:50.867Z,8.07
2022-10-05T20:15:38.589Z,8.17
2022-10-05T20:18:58.642Z,7.20
2022-10-05T20:21:40.375Z,7.50
2022-10-05T20:24:10.011Z,7.10
2022-10-05T20:26:58.544Z,7.17
2022-10-05T20:29:26.449Z,7.40
2022-10-05T20:31:54.436Z,7.50
2022-10-05T20:34:22.983Z,7.50
2022-10-05T20:36:51.754Z,7.37
2022-10-05T20:39:21.404Z,6.93
2022-10-05T20:41:50.752Z,8.07
2022-10-05T20:44:18.616Z,8.00
2022-10-05T20:46:47.389Z,7.97
2022-10-05T20:49:15.324Z,8.33
2022-10-05T20:51:43.515Z,8.00
2022-10-05T20:54:11.379Z,8.17
2022-10-05T20:56:42.624Z,8.07
2022-10-05T20:59:11.914Z,8.37
2022-10-05T21:01:39.825Z,8.23
2022-10-05T21:04:08.020Z,7.67
2022-10-05T21:06:35.984Z,7.40
2022-10-05T21:09:03.829Z,7.30
2022-10-05T21:11:31.733Z,7.50
2022-10-05T21:14:03.468Z,5.90
2022-10-05T21:16:38.230Z,5.90
2022-10-05T21:19:08.706Z,5.70
2022-10-05T21:21:36.561Z,6.00
2022-10-05T21:24:04.948Z,5.83
2022-10-05T21:26:33.616Z,5.87
2022-10-05T21:29:02.418Z,6.43
2022-10-05T21:31:30.615Z,6.67
2022-10-05T21:33:59.912Z,6.23
2022-10-05T21:36:27.797Z,6.07
2022-10-05T21:38:56.825Z,6.03
2022-10-05T21:41:24.816Z,6.17
2022-10-05T21:43:52.897Z,6.03
2022-10-05T21:46:22.841Z,5.63
2022-10-05T21:48:51.126Z,5.60
2022-10-05T21:51:21.188Z,6.33
2022-10-05T21:53:53.030Z,6.13
2022-10-05T21:56:23.706Z,6.47
2022-10-05T21:58:52.592Z,6.50
2022-10-05T22:01:22.783Z,5.93
2022-10-05T22:03:51.079Z,5.40
2022-10-05T22:06:20.321Z,5.80
2022-10-05T22:08:48.286Z,5.80
2022-10-05T22:11:18.394Z,6.33
2022-10-05T22:13:48.218Z,5.40
2022-10-05T22:16:18.318Z,6.37
2022-10-05T22:18:46.821Z,6.30
2022-10-05T22:21:15.141Z,6.23
2022-10-05T22:23:46.444Z,6.20
2022-10-05T22:26:17.319Z,5.80
2022-10-05T22:28:46.740Z,6.10
2022-10-05T22:31:14.762Z,6.03
2022-10-05T22:33:42.684Z,5.60
2022-10-05T22:36:10.919Z,5.73
2022-10-05T22:38:38.815Z,5.90
2022-10-05T22:41:12.586Z,5.80
2022-10-05T22:43:40.452Z,6.23
2022-10-05T22:46:12.506Z,5.53
2022-10-05T22:48:40.973Z,5.60
2022-10-05T22:51:09.349Z,5.57
2022-10-05T22:53:37.622Z,5.03
2022-10-05T22:56:06.892Z,5.87
2022-10-05T22:58:36.640Z,5.63
2022-10-05T23:01:06.354Z,5.60
2022-10-05T23:03:34.886Z,6.03
2022-10-05T23:06:04.612Z,5.27
2022-10-05T23:08:33.178Z,4.90
2022-10-05T23:11:04.768Z,5.40
2022-10-05T23:13:33.777Z,5.03
2022-10-05T23:16:08.745Z,5.87
2022-10-05T23:18:36.899Z,4.17
2022-10-05T23:21:07.407Z,4.30
2022-10-05T23:23:37.360Z,3.70
2022-10-05T23:26:06.628Z,3.00
2022-10-05T23:28:34.886Z,2.57
2022-10-05T23:31:04.869Z,3.23
2022-10-05T23:33:34.569Z,3.13
2022-10-05T23:36:04.480Z,3.07
2022-10-05T23:38:32.572Z,2.90
2022-10-05T23:41:00.779Z,3.47
2022-10-05T23:43:28.774Z,3.90
2022-10-05T23:45:58.138Z,3.10
2022-10-05T23:48:26.592Z,2.90
2022-10-05T23:50:56.386Z,2.50
2022-10-05T23:53:24.749Z,2.93
2022-10-05T23:55:53.286Z,3.97
2022-10-05T23:58:21.716Z,3.43
